Terminal Aerodrome Forecast
Issued by NWS Sterling, VA

Home | Current Version | Previous Version | Text Only | Print | Product List | Glossary On
Versions: 1 2 3 4 5 6 7 8 9 10 11 12 13 14 15 16 17 18 19 20 21 22 23 24 25 26 27 28
862
FTUS41 KLWX 260109 AAA
TAFBWI
TAF AMD
KBWI 260109Z 2601/2706 VRB03KT 6SM -SHRA BR OVC040
     FM260300 26006KT P6SM BKN070
     FM261400 29015G25KT P6SM BKN035
     FM270000 30006KT P6SM SCT120=

USA.gov is the U.S. government's official web portal to all federal, state and local government web resources and services.